Time;durP1;ratioP1;P1;durP2;ratioP2;P2;SDS_P1;SDS_P2;PMS_P1;PMS_P2;Temp;Humidity;BMP_temperature;BMP_pressure;BME280_temperature;BME280_humidity;BME280_pressure;Samples;Min_cycle;Max_cycle;Signal;HPM_P1;HPM_P2
2022/07/06 00:00:05;;;;;;;8.55;4.57;;;;;;;;;;4368596;32;20226;-82
2022/07/06 00:02:31;;;;;;;13.95;5.97;;;;;;;;;;4369755;32;20242;-82
2022/07/06 00:04:57;;;;;;;9.32;5.55;;;;;;;;;;4369610;32;20593;-86
2022/07/06 00:07:23;;;;;;;10.55;5.15;;;;;;;;;;4369325;32;20226;-84
2022/07/06 00:09:49;;;;;;;7.85;5.55;;;;;;;;;;4369550;32;20219;-86
2022/07/06 00:12:14;;;;;;;5.37;4.85;;;;;;;;;;4369440;32;20678;-82
2022/07/06 00:14:41;;;;;;;9.55;6.07;;;;;;;;;;4369387;32;20207;-85
2022/07/06 00:17:07;;;;;;;11.45;6.12;;;;;;;;;;4369386;32;20260;-84
2022/07/06 00:19:32;;;;;;;13.60;5.40;;;;;;;;;;4369340;32;20214;-83
2022/07/06 00:21:58;;;;;;;14.13;6.05;;;;;;;;;;4369349;32;20288;-85
2022/07/06 00:24:24;;;;;;;9.20;5.87;;;;;;;;;;4369376;32;20350;-85
2022/07/06 00:26:49;;;;;;;12.23;5.85;;;;;;;;;;4369030;32;20305;-82
2022/07/06 00:29:15;;;;;;;8.05;5.35;;;;;;;;;;4369637;32;20551;-85
2022/07/06 00:31:40;;;;;;;8.65;6.43;;;;;;;;;;4369777;32;20225;-85
2022/07/06 00:34:06;;;;;;;12.27;6.15;;;;;;;;;;4368144;32;20626;-82
2022/07/06 00:36:31;;;;;;;13.57;6.78;;;;;;;;;;4355253;32;20237;-82
2022/07/06 00:38:56;;;;;;;9.45;6.50;;;;;;;;;;4367479;32;20686;-86
2022/07/06 00:41:22;;;;;;;17.12;7.43;;;;;;;;;;4369064;32;20226;-85
2022/07/06 00:43:55;;;;;;;18.35;10.20;;;;;;;;;;4369120;32;20217;-82
2022/07/06 00:46:30;;;;;;;7.25;6.05;;;;;;;;;;4368782;32;20298;-82
2022/07/06 00:48:57;;;;;;;7.62;5.95;;;;;;;;;;4369405;32;20202;-82
2022/07/06 00:51:28;;;;;;;6.57;4.68;;;;;;;;;;4368934;32;20256;-84
2022/07/06 00:53:55;;;;;;;10.35;5.95;;;;;;;;;;4369248;32;20643;-83
2022/07/06 00:56:20;;;;;;;15.15;12.20;;;;;;;;;;4368869;32;20443;-82
2022/07/06 00:58:47;;;;;;;18.58;13.00;;;;;;;;;;4369172;32;20807;-83
2022/07/06 01:01:12;;;;;;;17.98;13.55;;;;;;;;;;4368644;32;20732;-83
2022/07/06 01:03:38;;;;;;;15.85;8.13;;;;;;;;;;4368794;32;20233;-83
2022/07/06 01:06:03;;;;;;;8.18;5.53;;;;;;;;;;4368968;32;20367;-83
2022/07/06 01:08:29;;;;;;;7.93;5.57;;;;;;;;;;4369007;32;20226;-83
2022/07/06 01:10:55;;;;;;;7.00;5.65;;;;;;;;;;4369013;32;20202;-83
2022/07/06 01:13:20;;;;;;;8.70;5.57;;;;;;;;;;4368940;32;20282;-84
2022/07/06 01:15:46;;;;;;;9.85;5.45;;;;;;;;;;4368420;32;20262;-84
2022/07/06 01:18:12;;;;;;;12.90;6.12;;;;;;;;;;4368508;32;20230;-82
2022/07/06 01:20:37;;;;;;;6.47;4.68;;;;;;;;;;4368888;32;20229;-83
2022/07/06 01:23:04;;;;;;;7.75;4.82;;;;;;;;;;4355064;32;20577;-83
2022/07/06 01:25:29;;;;;;;5.70;4.32;;;;;;;;;;4368528;32;20282;-84
2022/07/06 01:27:55;;;;;;;10.30;4.80;;;;;;;;;;4368623;32;20218;-85
2022/07/06 01:30:20;;;;;;;6.07;4.85;;;;;;;;;;4368551;32;20241;-85
2022/07/06 01:32:46;;;;;;;5.68;4.40;;;;;;;;;;4368340;32;20248;-84
2022/07/06 01:35:15;;;;;;;5.70;3.97;;;;;;;;;;4354983;32;20412;-83
2022/07/06 01:37:42;;;;;;;5.85;4.22;;;;;;;;;;4369561;32;20859;-82
2022/07/06 01:40:09;;;;;;;7.47;5.53;;;;;;;;;;4371799;32;20233;-83
2022/07/06 01:42:35;;;;;;;6.07;4.35;;;;;;;;;;4371471;32;20949;-82
2022/07/06 01:45:04;;;;;;;13.07;5.18;;;;;;;;;;4371374;32;20656;-82
2022/07/06 01:47:29;;;;;;;9.55;5.40;;;;;;;;;;4369468;32;20337;-83
2022/07/06 01:49:58;;;;;;;15.70;5.00;;;;;;;;;;4371184;32;20772;-82
2022/07/06 01:52:24;;;;;;;8.63;4.97;;;;;;;;;;4371049;32;20399;-82
2022/07/06 01:54:49;;;;;;;6.30;5.30;;;;;;;;;;4371352;32;20249;-83
2022/07/06 01:57:15;;;;;;;6.90;4.55;;;;;;;;;;4370957;32;20225;-83
2022/07/06 01:59:41;;;;;;;7.70;5.15;;;;;;;;;;4371153;32;20248;-82
2022/07/06 02:02:06;;;;;;;6.50;4.60;;;;;;;;;;4370852;32;20686;-83
2022/07/06 02:04:32;;;;;;;7.32;4.65;;;;;;;;;;4360307;32;20547;-83
2022/07/06 02:06:57;;;;;;;7.68;4.87;;;;;;;;;;4371064;32;20238;-83
2022/07/06 02:09:23;;;;;;;9.65;4.80;;;;;;;;;;4358219;32;20294;-83
2022/07/06 02:11:49;;;;;;;6.97;4.30;;;;;;;;;;4371023;32;20635;-83
2022/07/06 02:14:15;;;;;;;7.35;4.93;;;;;;;;;;4371063;32;20267;-82
2022/07/06 02:16:41;;;;;;;6.60;4.62;;;;;;;;;;4370719;32;20238;-82
2022/07/06 02:19:06;;;;;;;7.22;4.45;;;;;;;;;;4370806;32;20240;-82
2022/07/06 02:21:32;;;;;;;7.82;4.70;;;;;;;;;;4357346;32;20659;-83
2022/07/06 02:23:57;;;;;;;8.68;4.78;;;;;;;;;;4357661;32;20667;-83
2022/07/06 02:26:23;;;;;;;13.32;5.03;;;;;;;;;;4370926;32;20654;-83
2022/07/06 02:28:49;;;;;;;8.07;4.55;;;;;;;;;;4356796;32;20222;-84
2022/07/06 02:31:14;;;;;;;8.75;4.37;;;;;;;;;;4369456;32;20234;-84
2022/07/06 02:33:40;;;;;;;7.12;4.40;;;;;;;;;;4370738;32;20486;-83
2022/07/06 02:36:07;;;;;;;5.78;4.50;;;;;;;;;;4370537;32;20226;-83
2022/07/06 02:38:36;;;;;;;6.75;5.43;;;;;;;;;;4371349;32;20454;-83
2022/07/06 02:41:03;;;;;;;7.80;6.05;;;;;;;;;;4370848;32;20260;-83
2022/07/06 02:43:28;;;;;;;7.68;4.82;;;;;;;;;;4370403;32;20244;-83
2022/07/06 02:45:54;;;;;;;8.93;5.10;;;;;;;;;;4370221;32;20664;-84
2022/07/06 02:48:21;;;;;;;7.37;5.53;;;;;;;;;;4370058;32;20226;-83
2022/07/06 02:50:47;;;;;;;7.53;5.22;;;;;;;;;;4369871;32;20767;-84
2022/07/06 02:53:13;;;;;;;12.30;5.12;;;;;;;;;;4370855;32;20222;-83
2022/07/06 02:55:40;;;;;;;12.32;4.72;;;;;;;;;;4370152;32;20311;-83
2022/07/06 02:58:05;;;;;;;7.45;5.30;;;;;;;;;;4370171;32;20244;-83
2022/07/06 03:00:31;;;;;;;15.32;5.25;;;;;;;;;;4368988;32;20269;-82
2022/07/06 03:02:57;;;;;;;8.48;5.47;;;;;;;;;;4370298;32;20202;-83
2022/07/06 03:05:22;;;;;;;6.00;4.82;;;;;;;;;;4370276;32;20234;-83
2022/07/06 03:07:48;;;;;;;6.75;4.93;;;;;;;;;;4370373;32;20229;-83
2022/07/06 03:10:13;;;;;;;14.55;5.32;;;;;;;;;;4370284;32;20813;-83
2022/07/06 03:12:39;;;;;;;10.18;5.03;;;;;;;;;;4370447;32;20602;-83
2022/07/06 03:15:05;;;;;;;12.07;5.90;;;;;;;;;;4370098;32;20233;-82
2022/07/06 03:17:30;;;;;;;14.27;5.53;;;;;;;;;;4369991;32;20423;-82
2022/07/06 03:19:56;;;;;;;12.77;6.97;;;;;;;;;;4369720;32;20209;-83
2022/07/06 03:22:22;;;;;;;8.77;5.65;;;;;;;;;;4369741;32;20535;-82
2022/07/06 03:24:47;;;;;;;6.53;4.85;;;;;;;;;;4369659;32;20272;-82
2022/07/06 03:27:13;;;;;;;10.20;5.30;;;;;;;;;;4369881;32;20694;-83
2022/07/06 03:29:38;;;;;;;6.72;5.22;;;;;;;;;;4369831;32;20485;-84
2022/07/06 03:32:04;;;;;;;7.68;5.60;;;;;;;;;;4362047;32;20750;-82
2022/07/06 03:34:29;;;;;;;12.57;5.55;;;;;;;;;;4354928;32;20641;-82
2022/07/06 03:36:55;;;;;;;7.85;4.97;;;;;;;;;;4354867;32;20229;-84
2022/07/06 03:39:20;;;;;;;10.40;4.45;;;;;;;;;;4354602;32;20214;-83
2022/07/06 03:41:46;;;;;;;8.15;5.37;;;;;;;;;;4354656;32;20737;-83
2022/07/06 03:44:11;;;;;;;10.48;6.35;;;;;;;;;;4354789;32;20280;-83
2022/07/06 03:46:37;;;;;;;8.18;6.35;;;;;;;;;;4354389;32;20693;-83
2022/07/06 03:49:02;;;;;;;7.90;5.78;;;;;;;;;;4354680;32;20595;-83
2022/07/06 03:51:29;;;;;;;17.48;5.70;;;;;;;;;;4346824;32;20246;-84
2022/07/06 03:53:55;;;;;;;7.45;4.43;;;;;;;;;;4369812;32;20206;-83
2022/07/06 03:56:29;;;;;;;8.18;4.65;;;;;;;;;;4369318;32;20264;-83
2022/07/06 03:58:56;;;;;;;7.03;4.68;;;;;;;;;;4369567;32;20205;-83
2022/07/06 04:01:21;;;;;;;7.50;5.35;;;;;;;;;;4367779;32;20242;-83
2022/07/06 04:03:47;;;;;;;4.87;2.92;;;;;;;;;;4369400;32;20227;-84
2022/07/06 04:06:13;;;;;;;6.55;4.25;;;;;;;;;;4369424;32;20233;-82
2022/07/06 04:08:40;;;;;;;7.47;3.95;;;;;;;;;;4369436;32;20205;-82
2022/07/06 04:11:05;;;;;;;5.62;4.37;;;;;;;;;;4355828;32;20629;-83
2022/07/06 04:13:30;;;;;;;7.12;3.83;;;;;;;;;;4355627;32;20694;-83
2022/07/06 04:15:56;;;;;;;7.78;3.78;;;;;;;;;;4368941;32;20256;-82
2022/07/06 04:18:22;;;;;;;6.20;3.87;;;;;;;;;;4368953;32;20237;-82
2022/07/06 04:20:48;;;;;;;7.30;3.97;;;;;;;;;;4355758;32;20242;-83
2022/07/06 04:23:13;;;;;;;5.32;4.05;;;;;;;;;;4369273;32;20289;-83
2022/07/06 04:25:39;;;;;;;8.95;4.43;;;;;;;;;;4369285;32;20267;-82
2022/07/06 04:28:04;;;;;;;7.60;4.62;;;;;;;;;;4369218;32;20264;-83
2022/07/06 04:30:30;;;;;;;6.37;3.45;;;;;;;;;;4368613;32;20569;-83
2022/07/06 04:32:56;;;;;;;10.40;3.85;;;;;;;;;;4343026;32;20317;-82
2022/07/06 04:35:21;;;;;;;11.80;3.97;;;;;;;;;;4354093;32;20234;-83
2022/07/06 04:37:47;;;;;;;8.02;3.33;;;;;;;;;;4354108;32;20236;-83
2022/07/06 04:40:14;;;;;;;12.15;3.55;;;;;;;;;;4354140;32;20238;-82
2022/07/06 04:42:39;;;;;;;5.57;3.42;;;;;;;;;;4353253;32;20214;-83
2022/07/06 04:45:06;;;;;;;8.27;3.72;;;;;;;;;;4353321;32;20237;-83
2022/07/06 04:47:31;;;;;;;9.20;5.65;;;;;;;;;;4358602;32;20300;-82
2022/07/06 04:49:57;;;;;;;7.80;3.90;;;;;;;;;;4354903;32;20297;-83
2022/07/06 04:52:24;;;;;;;7.85;4.40;;;;;;;;;;4368112;32;20890;-82
2022/07/06 04:54:55;;;;;;;6.68;4.40;;;;;;;;;;4354990;32;20548;-82
2022/07/06 04:57:20;;;;;;;12.15;4.57;;;;;;;;;;4373918;32;20264;-80
2022/07/06 04:59:46;;;;;;;7.30;4.80;;;;;;;;;;4368164;32;20230;-81
2022/07/06 05:02:11;;;;;;;6.62;3.75;;;;;;;;;;4368388;32;20226;-83
2022/07/06 05:04:37;;;;;;;9.05;4.43;;;;;;;;;;4368272;32;20556;-82
2022/07/06 05:07:03;;;;;;;7.37;4.70;;;;;;;;;;4368510;32;20293;-83
2022/07/06 05:09:28;;;;;;;9.45;5.62;;;;;;;;;;4368386;32;20264;-82
2022/07/06 05:11:55;;;;;;;12.43;5.93;;;;;;;;;;4368793;32;20308;-82
2022/07/06 05:14:20;;;;;;;13.90;4.90;;;;;;;;;;4371623;32;20209;-83
2022/07/06 05:16:46;;;;;;;11.27;5.75;;;;;;;;;;4371217;32;20202;-83
2022/07/06 05:19:11;;;;;;;7.95;5.47;;;;;;;;;;4371371;32;20746;-83
2022/07/06 05:21:37;;;;;;;8.13;5.35;;;;;;;;;;4358135;32;20238;-83
2022/07/06 05:24:02;;;;;;;14.18;7.68;;;;;;;;;;4371726;32;20729;-83
2022/07/06 05:26:28;;;;;;;13.30;6.97;;;;;;;;;;4371919;32;20317;-83
2022/07/06 05:28:53;;;;;;;11.48;6.37;;;;;;;;;;4371267;32;20796;-84
2022/07/06 05:31:19;;;;;;;9.95;7.25;;;;;;;;;;4367586;32;20214;-84
2022/07/06 05:33:46;;;;;;;19.12;7.28;;;;;;;;;;4356151;32;20233;-83
2022/07/06 05:36:11;;;;;;;10.63;7.80;;;;;;;;;;4356409;32;20281;-83
2022/07/06 05:38:37;;;;;;;10.32;6.97;;;;;;;;;;4356228;32;20663;-83
2022/07/06 05:41:02;;;;;;;9.30;7.28;;;;;;;;;;4356850;32;20253;-84
2022/07/06 05:43:28;;;;;;;18.42;8.43;;;;;;;;;;4359422;32;20229;-82
2022/07/06 05:45:53;;;;;;;16.15;7.93;;;;;;;;;;4371063;32;20784;-82
2022/07/06 05:51:03;;;;;;;10.43;7.43;;;;;;;;;;4371274;32;20244;-83
2022/07/06 05:53:28;;;;;;;9.70;8.15;;;;;;;;;;4370811;32;20589;-84
2022/07/06 05:55:54;;;;;;;14.82;8.15;;;;;;;;;;4370972;32;20426;-82
2022/07/06 05:58:19;;;;;;;11.40;8.10;;;;;;;;;;4371320;32;20264;-82
2022/07/06 06:00:45;;;;;;;18.58;8.93;;;;;;;;;;4369902;32;20666;-80
2022/07/06 06:03:11;;;;;;;15.50;8.48;;;;;;;;;;4369527;32;20547;-81
2022/07/06 06:05:36;;;;;;;11.25;8.57;;;;;;;;;;4380006;32;20388;-81
2022/07/06 06:08:03;;;;;;;12.10;8.52;;;;;;;;;;4382357;32;20336;-81
2022/07/06 06:10:28;;;;;;;14.45;8.98;;;;;;;;;;4378926;32;20345;-81
2022/07/06 06:12:54;;;;;;;11.27;7.60;;;;;;;;;;4373954;32;20316;-80
2022/07/06 06:15:20;;;;;;;9.52;8.07;;;;;;;;;;4371431;32;20202;-81
2022/07/06 06:17:45;;;;;;;10.48;7.87;;;;;;;;;;4356705;32;20276;-82
2022/07/06 06:20:13;;;;;;;10.85;8.25;;;;;;;;;;4370757;32;20233;-81
2022/07/06 06:22:53;;;;;;;17.40;8.52;;;;;;;;;;4370881;32;20234;-82
2022/07/06 06:25:26;;;;;;;15.35;6.82;;;;;;;;;;4371004;32;20209;-83
2022/07/06 06:27:52;;;;;;;8.95;6.75;;;;;;;;;;4366330;32;20695;-82
2022/07/06 06:30:17;;;;;;;13.30;9.45;;;;;;;;;;4341929;32;20269;-82
2022/07/06 06:32:43;;;;;;;15.48;7.53;;;;;;;;;;4366857;32;20276;-82
2022/07/06 06:35:08;;;;;;;23.65;8.48;;;;;;;;;;4368823;32;20559;-83
2022/07/06 06:37:34;;;;;;;9.80;7.25;;;;;;;;;;4369901;32;20609;-83
2022/07/06 06:40:01;;;;;;;15.60;8.88;;;;;;;;;;4369918;32;20284;-83
2022/07/06 06:42:29;;;;;;;14.07;7.65;;;;;;;;;;4370796;32;20233;-82
2022/07/06 06:44:55;;;;;;;13.60;7.93;;;;;;;;;;4369066;32;20635;-83
2022/07/06 06:47:20;;;;;;;12.57;8.48;;;;;;;;;;4356833;32;20340;-83
2022/07/06 06:49:46;;;;;;;12.55;8.27;;;;;;;;;;4370483;32;20206;-83
2022/07/06 06:52:11;;;;;;;12.40;8.90;;;;;;;;;;4370643;32;20662;-83
2022/07/06 06:54:38;;;;;;;8.88;7.95;;;;;;;;;;4369918;32;20237;-83
2022/07/06 06:57:04;;;;;;;12.30;6.55;;;;;;;;;;4370504;32;20245;-83
2022/07/06 06:59:29;;;;;;;10.95;6.37;;;;;;;;;;4368940;32;20682;-83
2022/07/06 07:01:56;;;;;;;8.63;6.85;;;;;;;;;;4370911;32;20545;-83
2022/07/06 07:04:21;;;;;;;17.70;6.20;;;;;;;;;;4361232;32;20304;-83
2022/07/06 07:06:46;;;;;;;15.05;6.47;;;;;;;;;;4370958;32;20528;-82
2022/07/06 07:09:12;;;;;;;9.88;6.37;;;;;;;;;;4370442;32;20586;-83
2022/07/06 07:11:37;;;;;;;14.40;6.30;;;;;;;;;;4371015;32;20263;-82
2022/07/06 07:14:04;;;;;;;13.20;7.00;;;;;;;;;;4370956;32;20233;-82
2022/07/06 07:16:29;;;;;;;8.88;5.68;;;;;;;;;;4356964;32;20242;-83
2022/07/06 07:18:55;;;;;;;12.65;6.97;;;;;;;;;;4370183;32;20249;-81
2022/07/06 07:21:20;;;;;;;9.02;6.53;;;;;;;;;;4370821;32;20255;-83
2022/07/06 07:23:46;;;;;;;7.65;6.20;;;;;;;;;;4370638;32;20257;-82
2022/07/06 07:26:11;;;;;;;8.00;5.30;;;;;;;;;;4356673;32;20242;-82
2022/07/06 07:28:37;;;;;;;7.87;4.60;;;;;;;;;;4370246;32;20249;-82
2022/07/06 07:31:02;;;;;;;5.80;4.45;;;;;;;;;;4369160;32;20205;-82
2022/07/06 07:33:27;;;;;;;7.75;5.05;;;;;;;;;;4355184;32;20663;-83
2022/07/06 07:35:53;;;;;;;5.53;4.55;;;;;;;;;;4357097;32;20800;-81
2022/07/06 07:38:18;;;;;;;6.40;4.85;;;;;;;;;;4370053;32;20235;-84
2022/07/06 07:40:44;;;;;;;8.57;5.62;;;;;;;;;;4369968;32;20289;-83
2022/07/06 07:43:09;;;;;;;6.95;5.68;;;;;;;;;;4368305;32;20634;-84
2022/07/06 07:45:35;;;;;;;10.27;5.95;;;;;;;;;;4369732;32;20234;-84
2022/07/06 07:48:01;;;;;;;11.63;6.68;;;;;;;;;;4369941;32;20226;-84
2022/07/06 07:50:29;;;;;;;7.37;5.80;;;;;;;;;;4370340;32;20240;-85
2022/07/06 07:52:57;;;;;;;11.68;6.18;;;;;;;;;;4368972;32;20836;-84
2022/07/06 07:55:23;;;;;;;5.22;4.72;;;;;;;;;;4355868;32;20270;-84
2022/07/06 07:57:50;;;;;;;6.72;5.20;;;;;;;;;;4369282;32;20284;-83
2022/07/06 08:00:15;;;;;;;6.40;5.68;;;;;;;;;;4368635;32;20206;-83
2022/07/06 08:02:42;;;;;;;11.55;5.15;;;;;;;;;;4370187;32;20307;-84
2022/07/06 08:05:08;;;;;;;6.25;4.62;;;;;;;;;;4370088;32;20225;-83
2022/07/06 08:07:33;;;;;;;11.40;5.47;;;;;;;;;;4369844;32;20234;-85
2022/07/06 08:09:59;;;;;;;9.15;5.03;;;;;;;;;;4369712;32;20236;-85
2022/07/06 08:12:24;;;;;;;6.72;5.30;;;;;;;;;;4369882;32;20494;-86
2022/07/06 08:14:50;;;;;;;6.35;5.53;;;;;;;;;;4369861;32;20237;-85
2022/07/06 08:17:16;;;;;;;5.72;5.20;;;;;;;;;;4369574;32;20292;-83
2022/07/06 08:19:42;;;;;;;7.90;5.32;;;;;;;;;;4369197;32;20237;-84
2022/07/06 08:22:09;;;;;;;7.40;6.05;;;;;;;;;;4369296;32;20398;-84
2022/07/06 08:24:35;;;;;;;8.55;5.93;;;;;;;;;;4369215;32;20335;-84
2022/07/06 08:27:00;;;;;;;9.82;7.30;;;;;;;;;;4369193;32;20262;-85
2022/07/06 08:29:26;;;;;;;9.77;7.12;;;;;;;;;;4369433;32;20226;-83
2022/07/06 08:31:51;;;;;;;11.80;6.68;;;;;;;;;;4364449;32;20213;-87
2022/07/06 08:34:16;;;;;;;6.82;5.72;;;;;;;;;;4368606;32;20353;-84
2022/07/06 08:36:42;;;;;;;6.22;5.62;;;;;;;;;;4369847;32;20222;-85
2022/07/06 08:39:08;;;;;;;11.45;6.15;;;;;;;;;;4369271;32;20233;-87
2022/07/06 08:41:36;;;;;;;7.18;5.68;;;;;;;;;;4369808;32;20452;-87
2022/07/06 08:44:06;;;;;;;7.18;5.28;;;;;;;;;;4369176;32;20344;-89
2022/07/06 08:46:32;;;;;;;7.10;6.40;;;;;;;;;;4369574;32;20228;-85
2022/07/06 08:48:58;;;;;;;7.85;5.78;;;;;;;;;;4369094;32;20226;-87
2022/07/06 08:51:25;;;;;;;6.03;5.40;;;;;;;;;;4370561;32;20284;-82
2022/07/06 08:53:53;;;;;;;8.65;6.35;;;;;;;;;;4367953;32;20264;-84
2022/07/06 08:56:19;;;;;;;7.07;5.60;;;;;;;;;;4355794;32;20210;-81
2022/07/06 08:58:44;;;;;;;8.13;5.93;;;;;;;;;;4361604;32;20356;-83
2022/07/06 09:01:11;;;;;;;9.85;6.32;;;;;;;;;;4355726;32;20249;-81
2022/07/06 09:03:38;;;;;;;7.12;5.20;;;;;;;;;;4369072;32;20572;-83
2022/07/06 09:06:06;;;;;;;7.53;5.47;;;;;;;;;;4369170;32;20308;-82
2022/07/06 09:08:32;;;;;;;6.03;5.40;;;;;;;;;;4368489;32;20612;-82
2022/07/06 09:10:58;;;;;;;6.47;5.80;;;;;;;;;;4368859;32;20209;-82
2022/07/06 09:13:23;;;;;;;7.62;6.80;;;;;;;;;;4368585;32;20248;-82
2022/07/06 09:15:49;;;;;;;6.32;5.72;;;;;;;;;;4368149;32;20276;-84
2022/07/06 09:18:14;;;;;;;8.65;6.12;;;;;;;;;;4369453;32;20237;-83
2022/07/06 09:20:41;;;;;;;6.55;5.75;;;;;;;;;;4369271;32;20356;-84
2022/07/06 09:23:06;;;;;;;7.12;5.85;;;;;;;;;;4367712;32;20300;-81
2022/07/06 09:25:34;;;;;;;8.40;6.10;;;;;;;;;;4368620;32;20214;-83
2022/07/06 09:28:00;;;;;;;6.10;4.95;;;;;;;;;;4368448;32;20373;-82
2022/07/06 09:30:27;;;;;;;10.23;6.65;;;;;;;;;;4368497;32;20376;-83
2022/07/06 09:32:55;;;;;;;8.02;4.93;;;;;;;;;;4354987;32;20802;-82
2022/07/06 09:35:40;;;;;;;7.90;5.50;;;;;;;;;;4368608;32;20242;-82
2022/07/06 09:38:12;;;;;;;5.55;5.05;;;;;;;;;;4355126;32;20237;-82
2022/07/06 09:40:40;;;;;;;7.18;4.70;;;;;;;;;;4359658;32;20709;-81
2022/07/06 09:43:17;;;;;;;9.27;5.95;;;;;;;;;;4354169;33;20600;-85
2022/07/06 09:45:48;;;;;;;7.35;5.72;;;;;;;;;;4342510;33;20226;-84
2022/07/06 09:48:18;;;;;;;6.53;5.07;;;;;;;;;;4355534;33;20288;-82
2022/07/06 09:50:50;;;;;;;6.45;5.85;;;;;;;;;;4355222;33;20264;-83
2022/07/06 09:53:16;;;;;;;7.03;5.50;;;;;;;;;;4355050;33;20234;-84
2022/07/06 09:55:47;;;;;;;4.95;4.35;;;;;;;;;;4337088;32;20313;-83
2022/07/06 09:58:13;;;;;;;7.93;5.35;;;;;;;;;;4368139;32;20251;-83
2022/07/06 10:00:42;;;;;;;7.25;5.00;;;;;;;;;;4371124;32;20289;-82
2022/07/06 10:03:08;;;;;;;8.32;5.50;;;;;;;;;;4371088;32;20345;-83
2022/07/06 10:05:39;;;;;;;6.57;5.75;;;;;;;;;;4357948;32;20763;-83
2022/07/06 10:08:08;;;;;;;8.73;6.32;;;;;;;;;;4371088;32;20834;-86
2022/07/06 10:10:36;;;;;;;6.65;5.93;;;;;;;;;;4357210;32;20329;-81
2022/07/06 10:13:05;;;;;;;6.43;5.70;;;;;;;;;;4370905;32;20272;-81
2022/07/06 10:15:34;;;;;;;7.78;5.90;;;;;;;;;;4371419;32;20210;-82
2022/07/06 10:18:02;;;;;;;6.90;5.53;;;;;;;;;;4371032;32;20214;-82
2022/07/06 10:20:32;;;;;;;8.27;5.75;;;;;;;;;;4370950;32;20206;-81
2022/07/06 10:23:02;;;;;;;8.70;6.85;;;;;;;;;;4371181;32;20272;-82
2022/07/06 10:25:28;;;;;;;10.18;6.62;;;;;;;;;;4370631;32;20210;-82
2022/07/06 10:27:55;;;;;;;9.95;7.93;;;;;;;;;;4370254;32;20339;-82
2022/07/06 10:30:21;;;;;;;9.65;7.45;;;;;;;;;;4344634;32;20268;-82
2022/07/06 10:32:49;;;;;;;8.05;6.72;;;;;;;;;;4370170;32;20222;-82
2022/07/06 10:35:18;;;;;;;10.50;7.25;;;;;;;;;;4362414;32;20215;-84
2022/07/06 10:37:44;;;;;;;11.25;7.00;;;;;;;;;;4357894;32;20232;-83
2022/07/06 10:43:00;;;;;;;8.63;7.03;;;;;;;;;;4370192;32;20273;-82
2022/07/06 10:45:28;;;;;;;12.95;8.07;;;;;;;;;;4370531;32;20210;-81
2022/07/06 10:48:11;;;;;;;11.40;7.95;;;;;;;;;;4370329;32;20554;-81
2022/07/06 10:50:46;;;;;;;9.00;7.53;;;;;;;;;;4370982;32;20214;-83
2022/07/06 10:53:12;;;;;;;10.63;8.00;;;;;;;;;;4371103;32;20282;-81
2022/07/06 10:55:40;;;;;;;9.88;8.75;;;;;;;;;;4369650;32;20690;-80
2022/07/06 10:58:06;;;;;;;10.20;7.68;;;;;;;;;;4370379;32;20218;-87
2022/07/06 11:00:51;;;;;;;13.95;9.15;;;;;;;;;;4356757;32;20729;-82
2022/07/06 11:03:43;;;;;;;11.25;9.20;;;;;;;;;;4371312;32;20252;-81
2022/07/06 11:06:14;;;;;;;10.07;9.10;;;;;;;;;;4371720;32;20402;-81
2022/07/06 11:08:57;;;;;;;13.18;11.38;;;;;;;;;;4370221;32;20238;-83
2022/07/06 11:11:41;;;;;;;11.35;10.10;;;;;;;;;;4370989;32;20214;-84
2022/07/06 11:14:10;;;;;;;14.57;10.57;;;;;;;;;;4371143;32;20673;-82
2022/07/06 11:16:46;;;;;;;11.63;10.52;;;;;;;;;;4370704;32;20306;-87
2022/07/06 11:19:16;;;;;;;14.00;11.00;;;;;;;;;;4370773;32;20225;-82
2022/07/06 11:21:48;;;;;;;14.35;11.05;;;;;;;;;;4370627;32;20218;-85
2022/07/06 11:24:20;;;;;;;16.45;11.63;;;;;;;;;;4371090;32;20302;-82
2022/07/06 11:26:48;;;;;;;12.93;10.80;;;;;;;;;;4369279;32;20264;-81
2022/07/06 11:29:17;;;;;;;12.07;10.88;;;;;;;;;;4370493;32;20217;-81
2022/07/06 11:31:44;;;;;;;12.50;11.23;;;;;;;;;;4370117;32;20348;-80
2022/07/06 11:34:14;;;;;;;13.23;9.80;;;;;;;;;;4369909;32;20337;-83
2022/07/06 11:36:40;;;;;;;17.77;10.70;;;;;;;;;;4362280;32;20667;-82
2022/07/06 11:39:06;;;;;;;12.82;11.12;;;;;;;;;;4342001;32;20226;-83
2022/07/06 11:41:34;;;;;;;12.35;11.05;;;;;;;;;;4354589;32;20264;-79
2022/07/06 11:44:00;;;;;;;12.60;9.90;;;;;;;;;;4368539;32;20264;-83
2022/07/06 11:46:35;;;;;;;13.45;11.93;;;;;;;;;;4370257;32;20341;-80
2022/07/06 11:49:09;;;;;;;12.60;9.70;;;;;;;;;;4370226;32;20206;-81
2022/07/06 11:51:36;;;;;;;15.30;11.60;;;;;;;;;;4369680;32;20864;-84
2022/07/06 11:54:12;;;;;;;12.88;10.70;;;;;;;;;;4370003;32;20266;-82
2022/07/06 11:56:45;;;;;;;11.43;9.57;;;;;;;;;;4353804;32;20230;-81
2022/07/06 11:59:10;;;;;;;10.02;9.02;;;;;;;;;;4353695;32;20282;-80
2022/07/06 12:01:41;;;;;;;10.98;9.82;;;;;;;;;;4353879;32;20268;-83
2022/07/06 12:04:07;;;;;;;9.93;8.77;;;;;;;;;;4355374;32;20654;-80
2022/07/06 12:06:34;;;;;;;9.95;8.95;;;;;;;;;;4355364;32;20234;-81
2022/07/06 12:09:04;;;;;;;11.98;8.75;;;;;;;;;;4359564;32;20214;-87
2022/07/06 12:11:33;;;;;;;14.45;9.25;;;;;;;;;;4355975;32;20673;-84
2022/07/06 12:14:13;;;;;;;8.98;8.02;;;;;;;;;;4369467;32;20505;-80
2022/07/06 12:16:40;;;;;;;9.70;8.70;;;;;;;;;;4369981;32;20301;-83
2022/07/06 12:19:07;;;;;;;16.77;8.85;;;;;;;;;;4356089;32;20213;-81
2022/07/06 12:21:34;;;;;;;8.93;8.02;;;;;;;;;;4369833;32;20238;-80
2022/07/06 12:24:00;;;;;;;9.57;8.55;;;;;;;;;;4369422;32;20681;-81
2022/07/06 12:26:38;;;;;;;11.65;8.25;;;;;;;;;;4369152;32;20295;-82
2022/07/06 12:29:09;;;;;;;9.50;8.25;;;;;;;;;;4368676;32;20284;-82
2022/07/06 12:31:40;;;;;;;9.77;7.32;;;;;;;;;;4368833;32;20291;-83
2022/07/06 12:34:14;;;;;;;10.43;7.95;;;;;;;;;;4369279;32;20725;-81
2022/07/06 12:36:46;;;;;;;9.30;7.15;;;;;;;;;;4369106;32;20725;-81
2022/07/06 12:39:14;;;;;;;10.27;6.85;;;;;;;;;;4369026;32;20697;-84
2022/07/06 12:41:46;;;;;;;7.12;6.43;;;;;;;;;;4369354;32;20225;-85
2022/07/06 12:44:12;;;;;;;8.90;7.45;;;;;;;;;;4368770;32;20590;-91
2022/07/06 12:46:40;;;;;;;11.80;7.03;;;;;;;;;;4356289;32;20675;-86
2022/07/06 12:49:36;;;;;;;6.68;5.95;;;;;;;;;;4368310;32;20600;-88
2022/07/06 12:52:05;;;;;;;7.45;6.68;;;;;;;;;;4363211;32;20256;-89
2022/07/06 12:54:44;;;;;;;11.43;5.85;;;;;;;;;;4369528;32;20800;-87
2022/07/06 12:57:15;;;;;;;6.57;5.70;;;;;;;;;;4370390;32;20222;-91
2022/07/06 12:59:49;;;;;;;6.32;5.55;;;;;;;;;;4371420;32;20210;-90
2022/07/06 13:02:25;;;;;;;9.82;6.50;;;;;;;;;;4372157;32;20342;-87
2022/07/06 13:05:00;;;;;;;6.95;5.60;;;;;;;;;;4375149;32;20202;-90
2022/07/06 13:07:27;;;;;;;6.03;5.43;;;;;;;;;;4371533;32;20613;-92
2022/07/06 13:09:53;;;;;;;7.62;5.28;;;;;;;;;;4371540;32;20477;-79
2022/07/06 13:12:19;;;;;;;5.75;4.85;;;;;;;;;;4370915;32;20267;-81
2022/07/06 13:14:47;;;;;;;7.57;5.12;;;;;;;;;;4375024;32;20532;-87
2022/07/06 13:17:12;;;;;;;9.15;4.25;;;;;;;;;;4376400;32;20229;-86
2022/07/06 13:19:38;;;;;;;4.95;4.00;;;;;;;;;;4373836;32;20260;-82
2022/07/06 13:22:04;;;;;;;5.60;3.75;;;;;;;;;;4371040;32;20206;-82
2022/07/06 13:24:29;;;;;;;5.90;3.85;;;;;;;;;;4370670;32;20293;-80
2022/07/06 13:26:55;;;;;;;5.70;4.18;;;;;;;;;;4368738;32;20206;-82
2022/07/06 13:29:21;;;;;;;7.75;4.12;;;;;;;;;;4369174;32;20209;-84
2022/07/06 13:31:47;;;;;;;6.97;3.92;;;;;;;;;;4355093;32;20233;-87
2022/07/06 13:34:14;;;;;;;6.45;3.40;;;;;;;;;;4370905;32;20284;-85
2022/07/06 13:36:40;;;;;;;6.90;3.58;;;;;;;;;;4372152;32;20336;-83
2022/07/06 13:39:06;;;;;;;6.53;3.47;;;;;;;;;;4372063;32;20230;-80
2022/07/06 13:41:33;;;;;;;4.53;3.28;;;;;;;;;;4371923;32;20214;-82
2022/07/06 13:44:00;;;;;;;4.78;3.37;;;;;;;;;;4369893;32;20239;-81
2022/07/06 13:46:26;;;;;;;7.87;3.15;;;;;;;;;;4371622;32;20639;-81
2022/07/06 13:48:52;;;;;;;3.83;3.10;;;;;;;;;;4372409;32;20598;-81
2022/07/06 13:51:18;;;;;;;4.72;3.30;;;;;;;;;;4372466;32;20206;-83
2022/07/06 13:53:43;;;;;;;8.68;2.80;;;;;;;;;;4371838;32;20226;-81
2022/07/06 13:56:09;;;;;;;4.32;3.25;;;;;;;;;;4371099;32;20242;-80
2022/07/06 13:58:36;;;;;;;6.95;3.30;;;;;;;;;;4370807;32;20655;-83
2022/07/06 14:01:02;;;;;;;3.50;2.62;;;;;;;;;;4370918;32;20234;-80
2022/07/06 14:03:29;;;;;;;4.00;2.62;;;;;;;;;;4371022;32;20614;-80
2022/07/06 14:05:57;;;;;;;8.57;3.53;;;;;;;;;;4371428;32;20358;-79
2022/07/06 14:08:23;;;;;;;3.40;2.20;;;;;;;;;;4371213;32;20606;-81
2022/07/06 14:10:49;;;;;;;3.62;3.30;;;;;;;;;;4371525;32;20322;-80
2022/07/06 14:13:15;;;;;;;4.10;3.12;;;;;;;;;;4357251;32;20627;-86
2022/07/06 14:15:42;;;;;;;5.20;2.47;;;;;;;;;;4371357;32;20270;-86
2022/07/06 14:18:08;;;;;;;4.55;2.60;;;;;;;;;;4371457;32;20226;-81
2022/07/06 14:20:33;;;;;;;2.70;2.50;;;;;;;;;;4357928;32;20545;-86
2022/07/06 14:22:59;;;;;;;4.03;2.65;;;;;;;;;;4371638;32;20327;-86
2022/07/06 14:25:24;;;;;;;8.95;3.00;;;;;;;;;;4371224;32;20313;-85
2022/07/06 14:27:50;;;;;;;3.37;2.42;;;;;;;;;;4371014;32;20634;-80
2022/07/06 14:30:15;;;;;;;7.03;2.08;;;;;;;;;;4371217;32;20228;-85
2022/07/06 14:32:43;;;;;;;4.18;2.03;;;;;;;;;;4370877;32;20249;-80
2022/07/06 14:35:10;;;;;;;2.30;2.10;;;;;;;;;;4360052;32;20647;-82
2022/07/06 14:37:35;;;;;;;2.83;2.22;;;;;;;;;;4370688;32;20630;-80
2022/07/06 14:40:02;;;;;;;4.43;2.70;;;;;;;;;;4371245;32;20248;-81
2022/07/06 14:42:28;;;;;;;3.75;2.90;;;;;;;;;;4367560;32;20372;-83